createdAt,value
2019-05-15T00:00:35.366Z,4.33
2019-05-15T00:02:39.838Z,5.40
2019-05-15T00:04:44.130Z,4.93
2019-05-15T00:06:49.661Z,5.10
2019-05-15T00:08:54.131Z,5.40
2019-05-15T00:10:58.951Z,5.73
2019-05-15T00:13:04.658Z,5.43
2019-05-15T00:15:12.504Z,4.77
2019-05-15T00:17:30.438Z,5.60
2019-05-15T00:19:35.151Z,5.27
2019-05-15T00:21:39.586Z,5.10
2019-05-15T00:23:43.928Z,5.00
2019-05-15T00:25:48.784Z,4.97
2019-05-15T00:27:53.322Z,4.53
2019-05-15T00:29:57.961Z,5.00
2019-05-15T00:32:03.337Z,4.70
2019-05-15T00:34:12.894Z,5.43
2019-05-15T00:36:21.714Z,4.53
2019-05-15T00:38:27.985Z,5.30
2019-05-15T00:40:32.830Z,5.03
2019-05-15T00:42:38.485Z,5.13
2019-05-15T00:44:43.575Z,4.83
2019-05-15T00:46:48.868Z,5.00
2019-05-15T00:48:53.332Z,5.60
2019-05-15T00:50:59.034Z,5.10
2019-05-15T00:53:04.360Z,5.37
2019-05-15T00:55:12.627Z,5.47
2019-05-15T00:57:19.212Z,4.80
2019-05-15T00:59:27.536Z,4.70
2019-05-15T01:01:31.884Z,4.80
2019-05-15T01:03:38.817Z,4.67
2019-05-15T01:05:44.517Z,4.90
2019-05-15T01:07:50.182Z,4.97
2019-05-15T01:09:57.883Z,5.47
2019-05-15T01:12:05.095Z,4.47
2019-05-15T01:14:14.448Z,4.70
2019-05-15T01:16:27.961Z,4.50
2019-05-15T01:18:38.328Z,4.20
2019-05-15T01:20:43.041Z,4.73
2019-05-15T01:22:48.710Z,4.87
2019-05-15T01:24:53.401Z,4.93
2019-05-15T01:26:58.758Z,3.97
2019-05-15T01:29:04.252Z,5.13
2019-05-15T01:31:12.941Z,4.40
2019-05-15T01:33:28.277Z,4.63
2019-05-15T01:35:33.680Z,4.27
2019-05-15T01:37:39.099Z,6.03
2019-05-15T01:39:44.009Z,4.83
2019-05-15T01:41:49.576Z,5.00
2019-05-15T01:43:54.209Z,4.67
2019-05-15T01:45:59.052Z,4.43
2019-05-15T01:48:04.217Z,5.07
2019-05-15T01:50:12.827Z,4.57
2019-05-15T01:52:22.661Z,4.23
2019-05-15T01:54:28.866Z,4.40
2019-05-15T01:56:38.537Z,4.00
2019-05-15T01:58:44.623Z,4.90
2019-05-15T02:00:51.455Z,4.20
2019-05-15T02:02:58.741Z,4.67
2019-05-15T02:05:03.931Z,4.47
2019-05-15T02:07:12.848Z,3.90
2019-05-15T02:09:18.911Z,3.37
2019-05-15T02:11:28.787Z,3.93
2019-05-15T02:13:32.944Z,4.23
2019-05-15T02:15:39.550Z,3.93
2019-05-15T02:17:43.200Z,4.23
2019-05-15T02:19:48.456Z,3.73
2019-05-15T02:21:53.322Z,4.20
2019-05-15T02:23:58.765Z,3.43
2019-05-15T02:26:04.026Z,4.37
2019-05-15T02:28:12.581Z,4.07
2019-05-15T02:30:28.800Z,4.43
2019-05-15T02:32:30.248Z,4.43
2019-05-15T02:34:34.574Z,3.97
2019-05-15T02:36:39.990Z,4.57
2019-05-15T02:38:45.159Z,4.50
2019-05-15T02:40:49.577Z,3.77
2019-05-15T02:42:54.067Z,3.70
2019-05-15T02:44:58.802Z,4.50
2019-05-15T02:47:03.336Z,4.07
2019-05-15T02:49:11.930Z,3.80
2019-05-15T02:51:19.388Z,4.70
2019-05-15T02:53:23.485Z,3.77
2019-05-15T02:55:29.719Z,4.67
2019-05-15T02:57:34.487Z,4.00
2019-05-15T02:59:39.645Z,4.80
2019-05-15T03:01:44.038Z,4.90
2019-05-15T03:03:49.971Z,4.20
2019-05-15T03:05:54.327Z,4.20
2019-05-15T03:07:59.279Z,5.90
2019-05-15T03:10:04.536Z,4.37
2019-05-15T03:12:13.226Z,4.30
2019-05-15T03:14:23.503Z,3.70
2019-05-15T03:16:30.440Z,4.40
2019-05-15T03:18:34.583Z,4.00
2019-05-15T03:20:39.221Z,4.63
2019-05-15T03:22:44.346Z,3.90
2019-05-15T03:24:50.269Z,3.73
2019-05-15T03:26:55.033Z,3.63
2019-05-15T03:29:00.067Z,4.40
2019-05-15T03:31:30.498Z,3.57
2019-05-15T03:33:20.671Z,4.17
2019-05-15T03:35:23.869Z,3.53
2019-05-15T03:37:32.496Z,3.50
2019-05-15T03:39:33.500Z,4.30
2019-05-15T03:41:39.361Z,3.40
2019-05-15T03:43:43.860Z,4.17
2019-05-15T03:45:49.303Z,4.93
2019-05-15T03:47:55.285Z,3.57
2019-05-15T03:50:00.152Z,4.27
2019-05-15T03:52:05.994Z,3.83
2019-05-15T03:54:29.365Z,3.17
2019-05-15T03:56:25.636Z,3.50
2019-05-15T03:58:29.927Z,4.07
2019-05-15T04:00:34.474Z,3.23
2019-05-15T04:02:39.763Z,3.60
2019-05-15T04:04:44.424Z,3.33
2019-05-15T04:06:50.158Z,4.00
2019-05-15T04:08:54.471Z,3.80
2019-05-15T04:10:59.646Z,4.00
2019-05-15T04:13:05.564Z,3.30
2019-05-15T04:15:13.833Z,3.80
2019-05-15T04:17:20.117Z,3.40
2019-05-15T04:19:29.598Z,4.30
2019-05-15T04:21:33.540Z,4.00
2019-05-15T04:23:39.110Z,3.60
2019-05-15T04:25:49.269Z,4.00
2019-05-15T04:27:52.386Z,3.70
2019-05-15T04:29:59.083Z,4.50
2019-05-15T04:32:06.115Z,3.77
2019-05-15T04:34:12.837Z,3.57
2019-05-15T04:36:20.617Z,6.87
2019-05-15T04:38:29.252Z,3.80
2019-05-15T04:40:39.494Z,3.60
2019-05-15T04:42:42.720Z,3.37
2019-05-15T04:44:49.443Z,3.43
2019-05-15T04:46:53.014Z,3.57
2019-05-15T04:48:59.592Z,3.70
2019-05-15T04:51:03.831Z,3.60
2019-05-15T04:53:11.333Z,3.30
2019-05-15T04:55:19.607Z,4.30
2019-05-15T04:57:32.903Z,3.70
2019-05-15T04:59:34.135Z,3.70
2019-05-15T05:01:40.148Z,3.50
2019-05-15T05:03:44.706Z,4.20
2019-05-15T05:05:51.476Z,4.50
2019-05-15T05:07:55.942Z,4.47
2019-05-15T05:10:00.852Z,4.30
2019-05-15T05:12:09.789Z,3.60
2019-05-15T05:14:18.853Z,4.83
2019-05-15T05:16:25.152Z,5.43
2019-05-15T05:18:30.898Z,4.93
2019-05-15T05:20:35.489Z,5.87
2019-05-15T05:22:41.063Z,6.20
2019-05-15T05:24:47.702Z,6.77
2019-05-15T05:26:51.687Z,6.60
2019-05-15T05:29:01.423Z,6.00
2019-05-15T05:31:05.250Z,9.67
2019-05-15T05:33:13.995Z,953.10
2019-05-15T05:35:23.928Z,1303.73
2019-05-15T05:37:28.522Z,1737.10
2019-05-15T05:39:32.738Z,1415.90
2019-05-15T05:41:39.182Z,997.67
2019-05-15T05:43:43.174Z,1401.13
2019-05-15T05:45:49.144Z,1593.03
2019-05-15T05:47:54.074Z,1382.73
2019-05-15T05:49:58.669Z,1312.40
2019-05-15T05:52:03.670Z,1275.77
2019-05-15T05:54:12.137Z,1941.17
2019-05-15T05:56:19.420Z,1473.03
2019-05-15T05:58:29.491Z,1215.63
2019-05-15T06:00:39.362Z,893.70
2019-05-15T06:02:47.985Z,660.57
2019-05-15T06:04:50.251Z,537.80
2019-05-15T06:07:07.189Z,360.40
2019-05-15T06:09:03.955Z,139.90
2019-05-15T06:11:10.495Z,498.47
2019-05-15T06:13:18.511Z,430.43
2019-05-15T06:15:28.576Z,603.23
2019-05-15T06:17:32.896Z,293.20
2019-05-15T06:19:38.631Z,134.00
2019-05-15T06:21:54.639Z,53.53
2019-05-15T06:23:55.411Z,463.87
2019-05-15T06:25:59.203Z,1421.17
2019-05-15T06:28:03.372Z,715.87
2019-05-15T06:30:15.118Z,925.07
2019-05-15T06:32:20.757Z,1299.57
2019-05-15T06:34:28.601Z,635.57
2019-05-15T06:36:32.862Z,484.90
2019-05-15T06:38:39.248Z,294.50
2019-05-15T06:40:43.520Z,396.97
2019-05-15T06:42:48.439Z,676.67
2019-05-15T06:44:53.427Z,685.93
2019-05-15T06:46:58.744Z,703.10
2019-05-15T06:49:04.170Z,453.57
2019-05-15T06:51:11.865Z,701.13
2019-05-15T06:53:19.421Z,1241.10
2019-05-15T06:55:26.151Z,602.83
2019-05-15T06:57:30.845Z,646.23
2019-05-15T06:59:35.298Z,551.77
2019-05-15T07:01:39.498Z,501.07
2019-05-15T07:03:44.140Z,439.40
2019-05-15T07:05:50.746Z,232.40
2019-05-15T07:07:54.498Z,108.33
2019-05-15T07:09:59.168Z,233.67
2019-05-15T07:12:03.759Z,571.83
2019-05-15T07:14:11.257Z,612.10
2019-05-15T07:16:21.249Z,371.17
2019-05-15T07:18:30.793Z,264.00
2019-05-15T07:20:35.080Z,129.20
2019-05-15T07:22:40.151Z,48.83
2019-05-15T07:24:47.769Z,18.20
2019-05-15T07:26:52.200Z,10.00
2019-05-15T07:28:59.342Z,16.47
2019-05-15T07:31:03.198Z,137.37
2019-05-15T07:33:10.929Z,1261.07
2019-05-15T07:35:19.015Z,298.63
2019-05-15T07:37:28.965Z,229.10
2019-05-15T07:39:33.049Z,596.60
2019-05-15T07:41:39.141Z,458.80
2019-05-15T07:43:43.479Z,689.13
2019-05-15T07:45:53.642Z,630.20
2019-05-15T07:47:54.111Z,622.30
2019-05-15T07:49:59.295Z,1993.97
2019-05-15T07:52:03.932Z,1229.90
2019-05-15T07:54:12.641Z,1672.87
2019-05-15T07:56:20.531Z,1384.70
2019-05-15T07:58:27.786Z,1224.53
2019-05-15T08:00:32.955Z,1136.47
2019-05-15T08:02:37.959Z,943.13
2019-05-15T08:04:42.966Z,826.93
2019-05-15T08:06:49.071Z,813.80
2019-05-15T08:08:53.460Z,509.13
2019-05-15T08:10:57.996Z,1940.97
2019-05-15T08:13:02.745Z,1133.73
2019-05-15T08:15:12.394Z,1131.53
2019-05-15T08:17:21.312Z,1530.67
2019-05-15T08:19:25.017Z,1835.37
2019-05-15T08:21:29.362Z,1106.87
2019-05-15T08:23:33.762Z,1191.87
2019-05-15T08:25:38.941Z,1048.53
2019-05-15T08:27:43.408Z,1212.00
2019-05-15T08:29:49.379Z,913.70
2019-05-15T08:31:54.065Z,781.50
2019-05-15T08:34:12.832Z,656.20
2019-05-15T08:36:08.600Z,820.00
2019-05-15T08:38:23.821Z,919.13
2019-05-15T08:40:28.489Z,1999.90
2019-05-15T08:42:33.074Z,1114.00
2019-05-15T08:44:38.631Z,1606.63
2019-05-15T08:46:44.392Z,1309.20
2019-05-15T08:48:49.168Z,1282.07
2019-05-15T08:50:54.312Z,1152.07
2019-05-15T08:52:58.795Z,886.67
2019-05-15T08:55:03.744Z,888.63
2019-05-15T08:57:13.461Z,591.30
2019-05-15T08:59:23.537Z,572.23
2019-05-15T09:01:28.794Z,352.47
2019-05-15T09:03:34.547Z,326.17
2019-05-15T09:05:38.998Z,186.23
2019-05-15T09:07:43.192Z,337.80
2019-05-15T09:09:48.688Z,303.43
2019-05-15T09:11:53.058Z,203.77
2019-05-15T09:13:59.498Z,99.97
2019-05-15T09:16:03.818Z,202.83
2019-05-15T09:18:15.869Z,74.47
2019-05-15T09:20:21.627Z,94.17
2019-05-15T09:22:29.303Z,377.23
2019-05-15T09:24:33.495Z,300.87
2019-05-15T09:26:40.372Z,70.67
2019-05-15T09:28:49.377Z,501.93
2019-05-15T09:30:54.083Z,103.97
2019-05-15T09:32:58.834Z,655.43
2019-05-15T09:35:05.005Z,346.80
2019-05-15T09:37:13.654Z,153.07
2019-05-15T09:39:23.255Z,45.90
2019-05-15T09:41:28.620Z,101.93
2019-05-15T09:43:33.189Z,36.90
2019-05-15T09:45:39.114Z,48.60
2019-05-15T09:47:55.297Z,16.00
2019-05-15T09:50:02.474Z,84.60
2019-05-15T09:52:11.553Z,12.50
2019-05-15T09:54:19.283Z,169.67
2019-05-15T09:56:25.322Z,23.13
2019-05-15T09:58:30.307Z,298.00
2019-05-15T10:00:35.012Z,853.93
2019-05-15T10:02:39.837Z,441.03
2019-05-15T10:04:44.145Z,290.13
2019-05-15T10:06:48.961Z,282.30
2019-05-15T10:08:56.012Z,183.60
2019-05-15T10:11:00.574Z,1213.47
2019-05-15T10:13:11.330Z,368.20
2019-05-15T10:15:18.611Z,592.90
2019-05-15T10:17:30.221Z,534.10
2019-05-15T10:19:34.845Z,465.07
2019-05-15T10:21:40.311Z,403.63
2019-05-15T10:23:44.702Z,351.83
2019-05-15T10:25:49.445Z,665.90
2019-05-15T10:27:54.327Z,182.37
2019-05-15T10:29:59.078Z,128.03
2019-05-15T10:32:04.971Z,234.17
2019-05-15T10:34:13.564Z,200.97
2019-05-15T10:36:28.026Z,111.93
2019-05-15T10:38:32.524Z,18.97
2019-05-15T10:40:39.384Z,11.47
2019-05-15T10:42:42.692Z,12.20
2019-05-15T10:44:48.834Z,170.13
2019-05-15T10:46:53.129Z,753.47
2019-05-15T10:48:58.597Z,559.13
2019-05-15T10:51:07.223Z,1264.77
2019-05-15T10:53:14.820Z,912.00
2019-05-15T10:55:25.294Z,936.80
2019-05-15T10:57:30.254Z,834.07
2019-05-15T10:59:34.398Z,470.47
2019-05-15T11:01:38.947Z,212.33
2019-05-15T11:03:43.932Z,134.27
2019-05-15T11:05:49.123Z,49.70
2019-05-15T11:07:53.561Z,17.87
2019-05-15T11:10:00.626Z,9.33
2019-05-15T11:12:05.639Z,10.73
2019-05-15T11:14:13.364Z,5.50
2019-05-15T11:16:25.073Z,4.70
2019-05-15T11:18:30.713Z,4.50
2019-05-15T11:20:35.511Z,4.20
2019-05-15T11:22:42.983Z,4.43
2019-05-15T11:24:50.801Z,3.77
2019-05-15T11:26:56.019Z,3.70
2019-05-15T11:28:59.564Z,4.17
2019-05-15T11:31:04.169Z,4.37
2019-05-15T11:33:13.004Z,3.90
2019-05-15T11:35:19.497Z,6.70
2019-05-15T11:37:28.292Z,24.90
2019-05-15T11:39:32.714Z,43.90
2019-05-15T11:41:38.685Z,74.67
2019-05-15T11:43:43.675Z,87.30
2019-05-15T11:45:48.451Z,158.70
2019-05-15T11:47:53.230Z,251.43
2019-05-15T11:49:58.561Z,226.17
2019-05-15T11:52:03.279Z,384.77
2019-05-15T11:54:12.065Z,489.67
2019-05-15T11:56:20.907Z,807.57
2019-05-15T11:58:28.382Z,801.43
2019-05-15T12:00:34.143Z,668.40
2019-05-15T12:02:39.205Z,572.60
2019-05-15T12:04:44.945Z,301.77
2019-05-15T12:07:08.549Z,175.57
2019-05-15T12:09:15.601Z,333.13
2019-05-15T12:11:33.477Z,85.40
2019-05-15T12:13:32.954Z,219.33
2019-05-15T12:15:38.846Z,219.17
2019-05-15T12:17:44.066Z,208.40
2019-05-15T12:19:54.821Z,90.47
2019-05-15T12:21:59.815Z,60.77
2019-05-15T12:24:09.031Z,147.47
2019-05-15T12:26:19.281Z,473.43
2019-05-15T12:28:25.653Z,56.40
2019-05-15T12:30:30.430Z,28.83
2019-05-15T12:32:36.765Z,173.07
2019-05-15T12:34:41.554Z,29.23
2019-05-15T12:36:53.185Z,19.80
2019-05-15T12:38:52.472Z,100.10
2019-05-15T13:00:24.392Z,26.57
2019-05-15T13:02:31.590Z,7.03
2019-05-15T13:04:38.936Z,4.47
2019-05-15T13:06:59.398Z,3.70
2019-05-15T13:08:53.232Z,5.83
2019-05-15T13:11:09.137Z,361.83
2019-05-15T13:13:22.054Z,497.17
2019-05-15T13:15:28.168Z,225.97
2019-05-15T13:17:42.453Z,82.90
2019-05-15T13:19:48.899Z,17.77
2019-05-15T13:21:57.826Z,5.70
2019-05-15T13:24:05.623Z,1321.80
2019-05-15T13:26:23.765Z,551.53
2019-05-15T13:28:39.211Z,675.60
2019-05-15T13:30:44.212Z,135.13
2019-05-15T13:32:49.942Z,146.10
2019-05-15T13:34:59.267Z,64.10
2019-05-15T13:37:02.354Z,34.00
2019-05-15T13:39:11.036Z,112.87
2019-05-15T13:41:28.014Z,66.70
2019-05-15T13:43:33.512Z,38.67
2019-05-15T13:45:39.022Z,15.73
2019-05-15T13:47:46.559Z,10.93
2019-05-15T13:49:55.080Z,9.97
2019-05-15T13:52:03.401Z,87.60
2019-05-15T13:54:12.150Z,123.70
2019-05-15T13:56:26.049Z,149.67
2019-05-15T13:58:30.472Z,206.47
2019-05-15T14:00:34.877Z,209.93
2019-05-15T14:02:39.132Z,220.33
2019-05-15T14:04:43.736Z,71.30
2019-05-15T14:06:48.815Z,29.23
2019-05-15T14:08:54.391Z,10.80
2019-05-15T14:10:58.712Z,8.90
2019-05-15T14:13:03.520Z,4.33
2019-05-15T14:15:12.892Z,5.50
2019-05-15T14:17:24.369Z,7.10
2019-05-15T14:19:29.775Z,188.37
2019-05-15T14:21:37.973Z,282.37
2019-05-15T14:23:44.721Z,440.33
2019-05-15T14:25:52.927Z,534.30
2019-05-15T14:27:59.395Z,398.10
2019-05-15T14:30:08.983Z,313.50
2019-05-15T14:32:37.524Z,103.37
2019-05-15T14:34:34.042Z,91.13
2019-05-15T14:36:38.469Z,1179.80
2019-05-15T14:38:43.304Z,1319.57
2019-05-15T14:40:52.484Z,989.47
2019-05-15T14:42:59.410Z,679.70
2019-05-15T14:45:05.321Z,713.37
2019-05-15T14:47:14.392Z,1136.57
2019-05-15T14:49:22.592Z,455.00
2019-05-15T14:51:42.354Z,452.30
2019-05-15T14:53:49.033Z,383.83
2019-05-15T14:55:53.643Z,299.77
2019-05-15T14:57:58.794Z,1438.00
2019-05-15T15:00:08.906Z,901.87
2019-05-15T15:02:19.939Z,1056.77
2019-05-15T15:04:28.860Z,958.87
2019-05-15T15:06:35.986Z,970.80
2019-05-15T15:08:43.383Z,872.27
2019-05-15T15:10:59.445Z,1285.90
2019-05-15T15:13:14.955Z,843.20
2019-05-15T15:15:37.894Z,720.43
2019-05-15T15:17:44.706Z,1270.40
2019-05-15T15:19:52.024Z,607.27
2019-05-15T15:22:02.321Z,648.97
2019-05-15T15:24:11.901Z,707.90
2019-05-15T15:26:24.101Z,423.03
2019-05-15T15:28:40.198Z,181.80
2019-05-15T15:30:52.019Z,103.30
2019-05-15T15:33:08.548Z,25.83
2019-05-15T15:35:28.841Z,23.50
2019-05-15T15:37:42.761Z,6.40
2019-05-15T15:39:51.416Z,127.40
2019-05-15T15:42:04.600Z,49.23
2019-05-15T15:44:32.479Z,1390.17
2019-05-15T15:46:42.541Z,968.50
2019-05-15T15:48:50.504Z,610.27
2019-05-15T15:50:58.819Z,513.77
2019-05-15T15:53:12.517Z,261.43
2019-05-15T15:55:39.772Z,141.97
2019-05-15T15:57:52.771Z,783.63
2019-05-15T16:00:08.643Z,1166.87
2019-05-15T16:02:28.135Z,622.40
2019-05-15T16:04:45.330Z,323.27
2019-05-15T16:06:54.013Z,162.53
2019-05-15T16:09:02.858Z,147.10
2019-05-15T16:11:28.140Z,50.77
2019-05-15T16:13:26.232Z,21.60
2019-05-15T16:15:31.697Z,8.37
2019-05-15T16:17:39.898Z,6.73
2019-05-15T16:19:45.489Z,4.30
2019-05-15T16:21:50.195Z,4.10
2019-05-15T16:23:55.499Z,5.03
2019-05-15T16:26:02.893Z,6.30
2019-05-15T16:28:11.594Z,5.17
2019-05-15T16:30:22.311Z,5.90
2019-05-15T16:32:28.972Z,2.87
2019-05-15T16:34:33.910Z,3.77
2019-05-15T16:36:39.779Z,5.07
2019-05-15T16:38:44.505Z,2.73
2019-05-15T16:40:50.375Z,3.17
2019-05-15T16:43:01.819Z,3.63
2019-05-15T16:45:10.646Z,2.37
2019-05-15T16:47:19.514Z,2.73
2019-05-15T16:49:28.473Z,2.63
2019-05-15T16:51:34.820Z,3.20
2019-05-15T16:53:39.740Z,2.67
2019-05-15T16:55:44.484Z,2.90
2019-05-15T16:57:49.928Z,3.00
2019-05-15T16:59:54.831Z,2.67
2019-05-15T17:02:03.095Z,2.60
2019-05-15T17:04:18.160Z,2.40
2019-05-15T17:06:32.072Z,2.67
2019-05-15T17:08:41.015Z,4.40
2019-05-15T17:10:48.360Z,2.30
2019-05-15T17:12:55.356Z,2.73
2019-05-15T17:15:08.531Z,2.93
2019-05-15T17:17:26.894Z,3.60
2019-05-15T17:19:31.542Z,2.40
2019-05-15T17:21:44.269Z,2.30
2019-05-15T17:24:04.993Z,2.80
2019-05-15T17:26:12.832Z,2.50
2019-05-15T17:28:23.282Z,2.87
2019-05-15T17:30:28.998Z,2.97
2019-05-15T17:32:34.680Z,4.60
2019-05-15T17:34:42.915Z,2.73
2019-05-15T17:36:49.845Z,2.80
2019-05-15T17:38:55.223Z,2.53
2019-05-15T17:41:00.071Z,2.40
2019-05-15T17:43:09.367Z,2.43
2019-05-15T17:45:22.472Z,2.40
2019-05-15T17:47:28.611Z,2.50
2019-05-15T17:49:38.673Z,2.80
2019-05-15T17:51:45.181Z,2.13
2019-05-15T17:53:50.978Z,2.27
2019-05-15T17:55:58.449Z,2.13
2019-05-15T17:58:05.106Z,2.53
2019-05-15T18:00:28.755Z,2.30
2019-05-15T18:02:35.135Z,2.20
2019-05-15T18:04:40.759Z,2.53
2019-05-15T18:06:45.386Z,4.60
2019-05-15T18:08:50.055Z,2.77
2019-05-15T18:10:58.672Z,2.10
2019-05-15T18:13:05.423Z,2.20
2019-05-15T18:15:15.054Z,3.17
2019-05-15T18:17:25.909Z,2.10
2019-05-15T18:19:39.056Z,2.37
2019-05-15T18:21:49.593Z,2.03
2019-05-15T18:23:58.508Z,2.30
2019-05-15T18:26:09.016Z,2.57
2019-05-15T18:28:21.407Z,2.33
2019-05-15T18:30:28.196Z,2.10
2019-05-15T18:32:33.046Z,3.20
2019-05-15T18:34:39.733Z,2.40
2019-05-15T18:36:50.244Z,2.27
2019-05-15T18:38:55.172Z,2.10
2019-05-15T18:41:03.701Z,2.10
2019-05-15T18:43:10.375Z,2.37
2019-05-15T18:45:18.235Z,2.20
2019-05-15T18:47:27.988Z,2.20
2019-05-15T18:49:32.263Z,2.27
2019-05-15T18:51:38.548Z,2.20
2019-05-15T18:53:43.331Z,2.30
2019-05-15T18:55:48.802Z,2.67
2019-05-15T18:57:53.414Z,2.40
2019-05-15T18:59:58.128Z,2.47
2019-05-15T19:02:02.692Z,2.20
2019-05-15T19:04:09.485Z,2.33
2019-05-15T19:06:18.325Z,2.60
2019-05-15T19:08:24.683Z,2.20
2019-05-15T19:10:28.891Z,2.20
2019-05-15T19:12:33.525Z,2.13
2019-05-15T19:14:39.511Z,2.07
2019-05-15T19:16:44.064Z,2.47
2019-05-15T19:18:49.134Z,2.90
2019-05-15T19:20:53.738Z,3.10
2019-05-15T19:22:59.102Z,2.00
2019-05-15T19:25:05.275Z,2.20
2019-05-15T19:27:13.344Z,2.50
2019-05-15T19:29:24.656Z,2.33
2019-05-15T19:31:30.749Z,1.97
2019-05-15T19:33:38.182Z,2.47
2019-05-15T19:35:41.103Z,2.30
2019-05-15T19:37:48.924Z,2.20
2019-05-15T19:39:52.702Z,2.13
2019-05-15T19:41:58.296Z,2.10
2019-05-15T19:44:03.055Z,2.10
2019-05-15T19:46:10.806Z,2.00
2019-05-15T19:48:19.880Z,1.90
2019-05-15T19:50:28.725Z,2.33
2019-05-15T19:52:35.001Z,1.90
2019-05-15T19:54:39.677Z,2.30
2019-05-15T19:56:43.973Z,1.90
2019-05-15T20:08:23.568Z,1.80
2019-05-15T20:10:29.255Z,1.90
2019-05-15T20:12:33.950Z,1.80
2019-05-15T20:14:38.296Z,1.80
2019-05-15T20:16:43.034Z,2.07
2019-05-15T20:18:47.920Z,2.23
2019-05-15T20:20:52.220Z,1.60
2019-05-15T20:22:59.934Z,1.70
2019-05-15T20:25:05.091Z,2.10
2019-05-15T20:27:13.283Z,1.70
2019-05-15T20:29:23.788Z,2.00
2019-05-15T20:31:28.537Z,1.70
2019-05-15T20:33:34.042Z,1.90
2019-05-15T20:35:38.675Z,1.83
2019-05-15T20:37:43.184Z,1.93
2019-05-15T20:39:49.302Z,1.83
2019-05-15T20:41:54.075Z,1.93
2019-05-15T20:43:58.599Z,1.97
2019-05-15T20:46:04.229Z,2.20
2019-05-15T20:48:11.687Z,2.13
2019-05-15T20:50:22.169Z,1.50
2019-05-15T20:52:28.681Z,2.00
2019-05-15T20:54:34.881Z,2.10
2019-05-15T20:56:39.143Z,2.17
2019-05-15T20:58:43.666Z,1.70
2019-05-15T21:00:49.402Z,1.87
2019-05-15T21:02:53.936Z,1.80
2019-05-15T21:05:00.307Z,2.17
2019-05-15T21:07:07.860Z,2.03
2019-05-15T21:09:14.779Z,1.73
2019-05-15T21:11:25.038Z,2.27
2019-05-15T21:13:30.647Z,2.17
2019-05-15T21:15:35.454Z,2.27
2019-05-15T21:17:41.913Z,1.87
2019-05-15T21:19:48.817Z,1.90
2019-05-15T21:21:52.547Z,1.63
2019-05-15T21:24:00.960Z,1.60
2019-05-15T21:26:10.966Z,2.00
2019-05-15T21:28:16.402Z,2.17
2019-05-15T21:30:29.540Z,2.00
2019-05-15T21:32:34.153Z,1.70
2019-05-15T21:34:44.015Z,1.60
2019-05-15T21:36:48.369Z,1.80
2019-05-15T21:38:55.084Z,1.73
2019-05-15T21:41:00.941Z,1.80
2019-05-15T21:43:08.596Z,1.53
2019-05-15T21:45:25.124Z,1.53
2019-05-15T21:47:29.286Z,1.67
2019-05-15T21:49:33.674Z,224.77
2019-05-15T21:51:38.894Z,854.90
2019-05-15T21:53:44.065Z,1121.40
2019-05-15T21:55:50.752Z,1152.27
2019-05-15T21:57:54.573Z,1526.90
2019-05-15T22:00:00.687Z,1545.10
2019-05-15T22:02:06.492Z,685.53
2019-05-15T22:04:14.930Z,1566.10
2019-05-15T22:06:24.629Z,603.53
2019-05-15T22:08:29.089Z,1711.33
2019-05-15T22:10:33.928Z,692.20
2019-05-15T22:12:38.691Z,593.77
2019-05-15T22:14:43.242Z,1248.67
2019-05-15T22:16:48.120Z,1425.63
2019-05-15T22:18:54.306Z,1999.90
2019-05-15T22:20:58.698Z,1357.93
2019-05-15T22:23:03.524Z,606.57
2019-05-15T22:25:12.368Z,88.03
2019-05-15T22:27:21.037Z,51.00
2019-05-15T22:29:28.631Z,80.67
2019-05-15T22:31:32.666Z,36.80
2019-05-15T22:33:37.349Z,19.27
2019-05-15T22:35:44.647Z,7.20
2019-05-15T22:37:49.508Z,4.63
2019-05-15T22:39:54.287Z,2.87
2019-05-15T22:41:59.322Z,2.67
2019-05-15T22:44:03.867Z,2.47
2019-05-15T22:46:12.506Z,4.20
2019-05-15T22:48:19.135Z,2.30
2019-05-15T22:50:28.073Z,2.10
2019-05-15T22:52:33.807Z,2.30
2019-05-15T22:54:38.787Z,2.07
2019-05-15T22:56:43.359Z,2.00
2019-05-15T22:58:48.471Z,1.60
2019-05-15T23:00:52.975Z,1.90
2019-05-15T23:02:58.037Z,1.80
2019-05-15T23:05:03.416Z,2.10
2019-05-15T23:07:09.975Z,1.50
2019-05-15T23:09:18.459Z,1.87
2019-05-15T23:11:26.406Z,2.33
2019-05-15T23:13:30.909Z,1.40
2019-05-15T23:15:35.269Z,1.83
2019-05-15T23:17:39.874Z,1.83
2019-05-15T23:19:44.325Z,1.20
2019-05-15T23:21:48.749Z,1.57
2019-05-15T23:23:53.558Z,1.53
2019-05-15T23:25:57.876Z,1.30
2019-05-15T23:28:02.522Z,1.63
2019-05-15T23:30:10.275Z,1.70
2019-05-15T23:32:18.200Z,1.50
2019-05-15T23:34:28.001Z,1.90
2019-05-15T23:36:32.750Z,1.50
2019-05-15T23:38:38.491Z,1.80
2019-05-15T23:40:43.118Z,2.13
2019-05-15T23:42:49.105Z,1.50
2019-05-15T23:44:53.675Z,1.50
2019-05-15T23:46:57.869Z,1.67
2019-05-15T23:49:02.931Z,1.23
2019-05-15T23:51:10.537Z,1.57
2019-05-15T23:53:21.729Z,1.70
2019-05-15T23:55:28.598Z,1.30
2019-05-15T23:57:33.209Z,1.53
2019-05-15T23:59:38.405Z,1.50
